PWSweather.com
Personal Weather Stations
Station Observations
BRISTOL
HorfieldFilton, BristolGB BS7

HorfieldFiltonBristolGB BS7

Lat: 51.5, Lon: -2.576

Elevation: 272

Station Type: Davis VP2

http://www.martynhicks.co.uk/weather/data.php

Latest ConditionsUpdated 4:40:01 AM GMT Wednesday, Oct 22, 2014
Currently Today's Max Today's Min Today's Average
Temperature 47.9°F8.8°C 48.2°F9.0°C 46.9°F8.3°C 47.5°F8.6°C
Dew Point 42.3°F5.7°C 42.6°F5.9°C 39.8°F4.3°C 41.6°F5.3°C
Winds 2.3 mph W3.7 kmh W 6.7 mph W10.8 kmh W - 3.6 mph 5.8 kmh
Wind Gusts 9.0 mph14.5 kmh 18.0 mph29.0 kmh - -
Humidity 81% 82% 75% 80%
Pressure 30.29 in1025.7 mb 30.29 in1025.7 mb 30.25 in1024.4 mb -
Hour Temp Dew Point Humidity Winds Wind Gusts Pressure Precip Precip Rate Daily Precip Total
04:40 AM 47.9°F8.8°C 42.3°F5.7°C 81% 2.3 mph W3.7 kmh W 9.0 mph14.5 kmh 30.29 in1025.7 mb 0.00 in0.0 mm 0.00 in/hr0.0 mm/hr 0.00 in0.0 mm
04:30 AM 48.1°F8.9°C 42.5°F5.8°C 81% 2.3 mph W3.7 kmh W 4.0 mph6.4 kmh 30.28 in1025.4 mb 0.00 in0.0 mm 0.00 in/hr0.0 mm/hr 0.00 in0.0 mm
04:20 AM 48.2°F9.0°C 42.6°F5.9°C 81% 3.9 mph W6.3 kmh W 4.0 mph6.4 kmh 30.28 in1025.4 mb 0.00 in0.0 mm 0.00 in/hr0.0 mm/hr 0.00 in0.0 mm
04:10 AM 47.9°F8.8°C 42.3°F5.7°C 81% 2.9 mph W4.7 kmh W 8.0 mph12.9 kmh 30.28 in1025.4 mb 0.00 in0.0 mm 0.00 in/hr0.0 mm/hr 0.00 in0.0 mm
04:00 AM 47.9°F8.8°C 42.3°F5.7°C 81% 3.8 mph WNW6.1 kmh WNW 10.0 mph16.1 kmh 30.28 in1025.4 mb 0.00 in0.0 mm 0.00 in/hr0.0 mm/hr 0.00 in0.0 mm
03:50 AM 47.7°F8.7°C 42.2°F5.7°C 81% 6.4 mph WNW10.3 kmh WNW 18.0 mph29.0 kmh 30.29 in1025.7 mb 0.00 in0.0 mm 0.00 in/hr0.0 mm/hr 0.00 in0.0 mm
03:40 AM 47.7°F8.7°C 42.1°F5.6°C 81% 4.3 mph W6.9 kmh W 11.0 mph17.7 kmh 30.28 in1025.4 mb 0.00 in0.0 mm 0.00 in/hr0.0 mm/hr 0.00 in0.0 mm
03:30 AM 47.7°F8.7°C 42.1°F5.6°C 81% 6.7 mph W10.8 kmh W 15.0 mph24.1 kmh 30.29 in1025.7 mb 0.00 in0.0 mm 0.00 in/hr0.0 mm/hr 0.00 in0.0 mm
03:20 AM 47.4°F8.6°C 41.9°F5.5°C 81% 2.6 mph W4.2 kmh W 7.0 mph11.3 kmh 30.28 in1025.4 mb 0.00 in0.0 mm 0.00 in/hr0.0 mm/hr 0.00 in0.0 mm
03:10 AM 47.4°F8.6°C 41.5°F5.3°C 80% 3.0 mph W4.8 kmh W 7.0 mph11.3 kmh 30.29 in1025.7 mb 0.00 in0.0 mm 0.00 in/hr0.0 mm/hr 0.00 in0.0 mm
03:00 AM 47.4°F8.6°C 41.5°F5.3°C 80% 3.6 mph W5.8 kmh W 14.0 mph22.5 kmh 30.28 in1025.4 mb 0.00 in0.0 mm 0.00 in/hr0.0 mm/hr 0.00 in0.0 mm
02:50 AM 47.5°F8.6°C 41.7°F5.4°C 80% 4.9 mph W7.9 kmh W 8.0 mph12.9 kmh 30.28 in1025.4 mb 0.00 in0.0 mm 0.00 in/hr0.0 mm/hr 0.00 in0.0 mm
02:40 AM 47.2°F8.4°C 41.3°F5.2°C 80% 5.7 mph W9.2 kmh W 12.0 mph19.3 kmh 30.28 in1025.4 mb 0.00 in0.0 mm 0.00 in/hr0.0 mm/hr 0.00 in0.0 mm
02:30 AM 47.1°F8.4°C 41.6°F5.3°C 81% 3.1 mph W5.0 kmh W 9.0 mph14.5 kmh 30.28 in1025.4 mb 0.00 in0.0 mm 0.00 in/hr0.0 mm/hr 0.00 in0.0 mm
02:20 AM 47.3°F8.5°C 42.1°F5.6°C 82% 4.1 mph WNW6.6 kmh WNW 10.0 mph16.1 kmh 30.28 in1025.4 mb 0.00 in0.0 mm 0.00 in/hr0.0 mm/hr 0.00 in0.0 mm
02:10 AM 46.9°F8.3°C 41.7°F5.4°C 82% 5.1 mph W8.2 kmh W 11.0 mph17.7 kmh 30.28 in1025.4 mb 0.00 in0.0 mm 0.00 in/hr0.0 mm/hr 0.00 in0.0 mm
02:00 AM 47.3°F8.5°C 41.8°F5.4°C 81% 6.5 mph W10.5 kmh W 16.0 mph25.7 kmh 30.28 in1025.4 mb 0.00 in0.0 mm 0.00 in/hr0.0 mm/hr 0.00 in0.0 mm
01:50 AM 47.4°F8.6°C 41.8°F5.4°C 81% 4.7 mph W7.6 kmh W 10.0 mph16.1 kmh 30.28 in1025.4 mb 0.00 in0.0 mm 0.00 in/hr0.0 mm/hr 0.00 in0.0 mm
01:40 AM 47.3°F8.5°C 41.8°F5.4°C 81% 6.4 mph W10.3 kmh W 11.0 mph17.7 kmh 30.28 in1025.4 mb 0.00 in0.0 mm 0.00 in/hr0.0 mm/hr 0.00 in0.0 mm
01:30 AM 47.4°F8.6°C 41.9°F5.5°C 81% 3.1 mph W5.0 kmh W 8.0 mph12.9 kmh 30.28 in1025.4 mb 0.00 in0.0 mm 0.00 in/hr0.0 mm/hr 0.00 in0.0 mm
01:20 AM 47.3°F8.5°C 41.4°F5.2°C 80% 3.0 mph WNW4.8 kmh WNW 6.0 mph9.7 kmh 30.28 in1025.4 mb 0.00 in0.0 mm 0.00 in/hr0.0 mm/hr 0.00 in0.0 mm
01:10 AM 47.5°F8.6°C 41.6°F5.3°C 80% 2.2 mph W3.5 kmh W 4.0 mph6.4 kmh 30.29 in1025.7 mb 0.00 in0.0 mm 0.00 in/hr0.0 mm/hr 0.00 in0.0 mm
01:00 AM 47.2°F8.4°C 41.0°F5.0°C 79% 0.3 mph WNW0.5 kmh WNW 3.0 mph4.8 kmh 30.28 in1025.4 mb 0.00 in0.0 mm 0.00 in/hr0.0 mm/hr 0.00 in0.0 mm
12:50 AM 47.7°F8.7°C 41.2°F5.1°C 78% 0.8 mph WNW1.3 kmh WNW 1.0 mph1.6 kmh 30.27 in1025.1 mb 0.00 in0.0 mm 0.00 in/hr0.0 mm/hr 0.00 in0.0 mm
12:40 AM 47.7°F8.7°C 41.2°F5.1°C 78% 0.8 mph WNW1.3 kmh WNW 8.0 mph12.9 kmh 30.27 in1025.1 mb 0.00 in0.0 mm 0.00 in/hr0.0 mm/hr 0.00 in0.0 mm
12:30 AM 47.3°F8.5°C 40.5°F4.7°C 77% 2.4 mph WNW3.9 kmh WNW 8.0 mph12.9 kmh 30.27 in1025.1 mb 0.00 in0.0 mm 0.00 in/hr0.0 mm/hr 0.00 in0.0 mm
12:20 AM 47.4°F8.6°C 40.2°F4.6°C 76% 4.2 mph W6.8 kmh W 9.0 mph14.5 kmh 30.27 in1025.1 mb 0.00 in0.0 mm 0.00 in/hr0.0 mm/hr 0.00 in0.0 mm
12:10 AM 47.6°F8.7°C 40.1°F4.5°C 75% 3.6 mph WNW5.8 kmh WNW 4.0 mph6.4 kmh 30.26 in1024.7 mb 0.00 in0.0 mm 0.00 in/hr0.0 mm/hr 0.00 in0.0 mm
12:00 AM 47.4°F8.6°C 39.8°F4.3°C 75% 2.9 mph W4.7 kmh W 6.0 mph9.7 kmh 30.25 in1024.4 mb 0.00 in0.0 mm 0.00 in/hr0.0 mm/hr 0.00 in0.0 mm